Buoy 44893

sailwx.info

Track history (hours):
 
Tides and Currents Weather Stations Pressure Air Temp Water Temp Dewpoint Dewpoint Depression Visibility Wind Speed Wind Dir Waves Ship Positions

Drifting buoy 44893

Last reported at 2018-Aug-15 07:00 UTC. Time now 2018-Aug-17 11:41 UTC.
Position N 34°31' W 053°47'.

Water temperature 27.3 ° C

Date/timePositionNaut miles runAvg speedWind from/ knotsBaromVisibWave heightAir tempDewpointWater temp
2018-Aug-15 07:00N 34°31' W 053°47'0 0.0 27.3
2018-Aug-15 02:00N 34°31' W 053°47'0 0.0 27.3
2018-Aug-15 01:30N 34°31' W 053°47'0 0.0 27.3
2018-Aug-15 01:15N 34°31' W 053°47'0 0.0 27.3
2018-Aug-15 00:30N 34°31' W 053°47'0 0.0 27.3
2018-Aug-15 00:15N 34°31' W 053°47'1 1.6 27.4
2018-Aug-14 23:45N 34°30' W 053°48'1 3.1 27.4
2018-Aug-14 23:30N 34°31' W 053°49'1 2.4 27.4
2018-Aug-14 23:15N 34°31' W 053°49'0 1.0 27.4
2018-Aug-14 22:45N 34°31' W 053°49'0 0.0 27.4
2018-Aug-14 22:15N 34°31' W 053°49'2 4.1 27.4
2018-Aug-14 21:45N 34°33' W 053°50'0 0.0 27.4
2018-Aug-14 21:30N 34°33' W 053°50'0 0.0 27.4
2018-Aug-14 21:00N 34°33' W 053°50'0 0.0 27.4
2018-Aug-14 20:00N 34°33' W 053°50'2 2.1 27.4
2018-Aug-14 19:15N 34°34' W 053°52'0 0.0 27.4
2018-Aug-14 17:45N 34°34' W 053°52'414.9 27.4
2018-Aug-14 17:30N 34°38' W 053°53'1 0.3 27.4
2018-Aug-14 14:45N 34°38' W 053°52'0 0.0 27.3
2018-Aug-14 14:15N 34°38' W 053°52'1 4.6 27.3
2018-Aug-14 14:00N 34°39' W 053°53'0 0.0 27.3
2018-Aug-14 13:45N 34°39' W 053°53'0 0.0 27.3
2018-Aug-14 13:00N 34°39' W 053°53'1 2.4 27.3
2018-Aug-14 12:30N 34°40' W 053°53'0 0.0 27.2
2018-Aug-14 12:15N 34°40' W 053°53'2 6.4 27.2
2018-Aug-14 12:00N 34°41' W 053°55'0 0.0 27.2
2018-Aug-14 11:15N 34°41' W 053°55'0 0.0 27.2
2018-Aug-14 11:00N 34°41' W 053°55'0 0.0 27.2
2018-Aug-14 10:30N 34°41' W 053°55'1 3.1 27.2
2018-Aug-14 10:15N 34°41' W 053°55'1 0.8 27.2
2018-Aug-14 09:30N 34°41' W 053°55'1 5.2 27.2
2018-Aug-14 09:15N 34°42' W 053°55'0 0.0 27.2
2018-Aug-14 08:00N 34°42' W 053°55'415.5 27.2
2018-Aug-14 07:45N 34°45' W 053°52'313.4 27.2
2018-Aug-14 07:30N 34°42' W 053°54'3 2.7 27.2
2018-Aug-14 06:15N 34°45' W 053°52'0 0.0 27.2
2018-Aug-14 01:45N 34°45' W 053°52'0 2.0 27.3
2018-Aug-14 01:30N 34°45' W 053°52'1 1.5 27.3
2018-Aug-14 00:45N 34°46' W 053°50'0 0.0 27.3
2018-Aug-14 00:30N 34°46' W 053°50'1 1.2 27.3
2018-Aug-14 00:00N 34°46' W 053°50'0 0.0 27.3
2018-Aug-13 23:45N 34°46' W 053°50'1 3.9 27.3
2018-Aug-13 23:30N 34°46' W 053°49'0 1.0 27.3
2018-Aug-13 23:00N 34°46' W 053°50'0 0.0 27.3
2018-Aug-13 22:45N 34°46' W 053°50'1 3.1 27.3
2018-Aug-13 22:30N 34°47' W 053°49'0 0.0 27.3
2018-Aug-13 22:15N 34°47' W 053°49'0 2.0 27.3
2018-Aug-13 22:00N 34°47' W 053°49'0 0.0 27.3
2018-Aug-13 21:45N 34°47' W 053°49'2 2.5 27.4
2018-Aug-13 21:00N 34°48' W 053°47'0 1.0 27.4
2018-Aug-13 20:30N 34°48' W 053°46'0 2.0 27.4
2018-Aug-13 20:15N 34°48' W 053°47'2 2.6 27.4
2018-Aug-13 19:30N 34°48' W 053°44'0 0.0 27.4
2018-Aug-13 19:15N 34°48' W 053°44'0 0.0 27.3
2018-Aug-13 17:45N 34°48' W 053°44'4 1.3 27.3
2018-Aug-13 14:30N 34°49' W 053°40'2 9.2 27.1
2018-Aug-13 14:15N 34°50' W 053°37'0 0.0 27.1
2018-Aug-13 13:30N 34°50' W 053°37'0 0.0 27.0
2018-Aug-13 13:15N 34°50' W 053°37'1 2.0 27.0
2018-Aug-13 12:45N 34°50' W 053°36'1 2.6 26.9
2018-Aug-13 12:15N 34°52' W 053°35'1 2.0 26.9
2018-Aug-13 11:45N 34°52' W 053°34'0 0.0 26.9
2018-Aug-13 10:45N 34°52' W 053°34'0 2.0 26.9
2018-Aug-13 10:30N 34°52' W 053°34'0 0.0 26.9
2018-Aug-13 10:00N 34°52' W 053°34'312.1 26.9
2018-Aug-13 09:45N 34°52' W 053°30'0 0.0 26.9
2018-Aug-13 09:30N 34°52' W 053°30'2 1.3 26.9
2018-Aug-13 08:15N 34°52' W 053°28'0 0.0 26.9
2018-Aug-13 08:00N 34°52' W 053°28'0 0.0 26.9
2018-Aug-13 06:30N 34°52' W 053°28'624.1 26.9
2018-Aug-13 06:15N 34°53' W 053°21'0 0.0 26.9
2018-Aug-13 02:00N 34°53' W 053°21'1 1.2 27.0
2018-Aug-13 01:00N 34°53' W 053°20'0 0.0 27.0
2018-Aug-13 00:30N 34°53' W 053°20'1 3.9 27.0
2018-Aug-13 00:15N 34°53' W 053°19'0 0.0 27.0
2018-Aug-13 00:00N 34°53' W 053°19'0 2.0 27.0
2018-Aug-12 23:45N 34°53' W 053°18'0 0.0 27.0
2018-Aug-12 23:30N 34°53' W 053°18'1 3.1 27.0
2018-Aug-12 23:15N 34°54' W 053°17'0 0.0 27.0
2018-Aug-12 23:00N 34°54' W 053°17'0 0.0 27.1
2018-Aug-12 22:45N 34°54' W 053°17'0 2.0 27.1
2018-Aug-12 22:30N 34°54' W 053°17'1 3.1 27.1
2018-Aug-12 22:15N 34°53' W 053°16'1 4.6 27.1
2018-Aug-12 22:00N 34°54' W 053°15'1 2.3 27.1
2018-Aug-12 21:30N 34°55' W 053°14'0 0.0 27.1
2018-Aug-12 21:15N 34°55' W 053°14'0 0.0 27.1
2018-Aug-12 21:00N 34°55' W 053°14'0 0.0 27.1
2018-Aug-12 20:45N 34°55' W 053°14'1 1.5 27.1
2018-Aug-12 19:45N 34°55' W 053°12'310.1 27.1
2018-Aug-12 19:30N 34°55' W 053°09'0 0.0 27.1
2018-Aug-12 18:00N 34°55' W 053°09'0 0.0 27.1
2018-Aug-12 17:45N 34°55' W 053°09'4 1.4 27.1
2018-Aug-12 14:45N 34°57' W 053°04'1 0.8 27.1
2018-Aug-12 13:45N 34°58' W 053°04'0 0.0 27.1
2018-Aug-12 13:15N 34°58' W 053°04'0 2.0 27.1
2018-Aug-12 13:00N 34°58' W 053°03'0 1.0 27.1
2018-Aug-12 12:30N 34°58' W 053°02'0 0.0 27.1
2018-Aug-12 12:15N 34°58' W 053°02'0 0.0 27.0
2018-Aug-12 11:45N 34°58' W 053°02'2 1.6 27.0
2018-Aug-12 10:45N 34°57' W 053°01'0 0.0 27.0
2018-Aug-12 10:30N 34°57' W 053°01'2 9.8 27.0
2018-Aug-12 10:15N 34°57' W 052°58'0 0.0 27.0
2018-Aug-12 10:00N 34°57' W 052°58'0 0.4 27.0
2018-Aug-12 08:45N 34°57' W 052°57'3 5.9 27.0
2018-Aug-12 08:15N 34°57' W 052°53'0 0.0 27.0
2018-Aug-12 07:00N 34°57' W 052°53'0 0.0 27.1
2018-Aug-12 06:45N 34°57' W 052°53'833.4 27.1
2018-Aug-12 06:30N 34°57' W 052°43'0 0.0 27.1
2018-Aug-12 01:30N 34°57' W 052°43'2 6.4 27.2
2018-Aug-12 01:15N 34°58' W 052°41'1 2.0 27.3
2018-Aug-12 00:45N 34°58' W 052°40'0 0.0 27.2
2018-Aug-12 00:30N 34°58' W 052°40'2 3.8 27.3
2018-Aug-12 00:00N 34°59' W 052°38'0 0.0 27.3
2018-Aug-11 23:45N 34°59' W 052°38'0 0.0 27.3
2018-Aug-11 23:30N 34°59' W 052°38'0 0.0 27.3
2018-Aug-11 23:15N 34°59' W 052°38'1 3.9 27.3
2018-Aug-11 23:00N 34°59' W 052°37'0 0.0 27.3
2018-Aug-11 22:30N 34°59' W 052°37'1 4.6 27.3
2018-Aug-11 22:15N 34°59' W 052°36'0 0.0 27.3
2018-Aug-11 21:45N 34°59' W 052°36'0 0.0 27.4
2018-Aug-11 21:30N 34°59' W 052°36'0 0.0 27.4
2018-Aug-11 21:15N 34°59' W 052°36'2 2.1 27.4
2018-Aug-11 20:15N 35°00' W 052°34'3 5.5 27.4
2018-Aug-11 19:45N 35°01' W 052°31'0 0.0 27.4
2018-Aug-11 18:15N 35°01' W 052°31'0 0.0 27.4
2018-Aug-11 18:00N 35°01' W 052°31'4 1.2 27.4
2018-Aug-11 14:15N 35°02' W 052°25'1 3.9 27.3
2018-Aug-11 14:00N 35°02' W 052°24'0 0.0 27.3
2018-Aug-11 13:30N 35°02' W 052°24'1 3.9 27.3
2018-Aug-11 13:15N 35°02' W 052°23'0 1.0 27.3
2018-Aug-11 12:45N 35°02' W 052°22'1 2.4 27.3
2018-Aug-11 12:30N 35°02' W 052°22'1 3.9 27.2
2018-Aug-11 12:15N 35°02' W 052°21'1 2.0 27.2
2018-Aug-11 11:45N 35°02' W 052°20'0 0.7 27.2
2018-Aug-11 11:00N 35°02' W 052°19'0 0.0 27.2
2018-Aug-11 10:45N 35°02' W 052°19'2 7.9 1.1 27.2
2018-Aug-11 10:30N 35°02' W 052°17'1 1.2 27.2
2018-Aug-11 09:15N 35°02' W 052°15'0 0.0 27.2
2018-Aug-11 09:00N 35°02' W 052°15'0 0.0 27.2
2018-Aug-11 08:45N 35°02' W 052°15'2 9.8 27.2
2018-Aug-11 08:30N 35°02' W 052°12'0 0.0 27.2
2018-Aug-11 08:15N 35°02' W 052°12'0 0.0 27.2
2018-Aug-11 07:45N 35°02' W 052°12'0 0.0 27.2
2018-Aug-11 07:30N 35°02' W 052°12'911.8 27.2
2018-Aug-11 06:45N 35°05' W 052°02'2 0.3 27.2
2018-Aug-11 01:45N 35°06' W 052°00'0 0.0 27.3
2018-Aug-11 01:15N 35°06' W 052°00'1 5.2 27.3
2018-Aug-11 01:00N 35°07' W 051°59'2 2.1 27.3
2018-Aug-11 00:15N 35°08' W 051°58'0 0.0 27.3
2018-Aug-11 00:00N 35°08' W 051°58'0 0.0 27.3
2018-Aug-10 23:45N 35°08' W 051°58'1 3.1 27.3
2018-Aug-10 23:30N 35°08' W 051°57'0 0.0 27.3
2018-Aug-10 23:15N 35°08' W 051°57'0 0.0 27.3
2018-Aug-10 22:45N 35°08' W 051°57'0 2.0 27.4
2018-Aug-10 22:30N 35°08' W 051°56'0 0.0 27.4
2018-Aug-10 22:15N 35°08' W 051°56'0 0.0 27.4
2018-Aug-10 22:00N 35°08' W 051°56'0 0.0 27.4
2018-Aug-10 21:45N 35°08' W 051°56'1 2.0 27.4
2018-Aug-10 21:00N 35°08' W 051°55'0 0.0 27.4
2018-Aug-10 20:45N 35°08' W 051°55'1 4.6 27.4
2018-Aug-10 20:30N 35°09' W 051°53'0 0.0 27.4
2018-Aug-10 20:15N 35°09' W 051°53'2 8.2 27.4
2018-Aug-10 20:00N 35°08' W 051°51'0 0.0 27.4
2018-Aug-10 18:30N 35°08' W 051°51'623.6 27.4
2018-Aug-10 18:15N 35°11' W 051°44'2 0.4 27.4
2018-Aug-10 14:30N 35°10' W 051°43'2 2.1 27.4
2018-Aug-10 13:45N 35°11' W 051°41'0 0.0 27.3
2018-Aug-10 13:00N 35°11' W 051°41'0 2.0 27.2
2018-Aug-10 12:45N 35°11' W 051°40'0 0.0 27.2
2018-Aug-10 12:15N 35°11' W 051°40'2 6.4 27.1
2018-Aug-10 12:00N 35°11' W 051°38'0 0.0 27.1
2018-Aug-10 11:15N 35°11' W 051°38'1 3.9 27.1
2018-Aug-10 11:00N 35°11' W 051°37'2 1.8 27.1
2018-Aug-10 09:45N 35°13' W 051°35'0 0.0 27.1
2018-Aug-10 09:30N 35°13' W 051°35'1 5.9 27.1
2018-Aug-10 09:15N 35°13' W 051°33'0 1.0 27.1
2018-Aug-10 08:45N 35°13' W 051°32'2 9.2 27.1
2018-Aug-10 08:30N 35°14' W 051°30'2 7.6 27.1
2018-Aug-10 08:15N 35°13' W 051°32'0 0.0 27.1
2018-Aug-10 08:00N 35°13' W 051°32'1110.8 27.1
2018-Aug-10 07:00N 35°18' W 051°20'0 0.0 27.1
2018-Aug-10 06:45N 35°18' W 051°20'1 0.1 27.1
2018-Aug-10 01:30N 35°17' W 051°20'0 0.0 27.3
2018-Aug-10 01:15N 35°17' W 051°20'1 1.5 27.3
2018-Aug-10 00:30N 35°18' W 051°19'0 0.0 27.3
2018-Aug-10 00:15N 35°18' W 051°19'2 3.2 27.3
2018-Aug-09 23:45N 35°19' W 051°17'0 0.0 27.3
2018-Aug-09 22:45N 35°19' W 051°17'1 3.9 190 / 3 gusting 61007.0 14.510.927.3
2018-Aug-09 22:30N 35°19' W 051°16'0 0.4 27.3
2018-Aug-09 21:15N 35°19' W 051°16'1 5.9 27.4
2018-Aug-09 21:00N 35°19' W 051°14'1 4.6 27.5
2018-Aug-09 20:45N 35°19' W 051°15'3 5.9 27.5
2018-Aug-09 20:15N 35°19' W 051°11'0 0.0 27.5
2018-Aug-09 19:15N 35°19' W 051°11'0 0.0 27.5
2018-Aug-09 18:45N 35°19' W 051°11'519.9 27.5
2018-Aug-09 18:30N 35°23' W 051°07'0 0.0 27.5
2018-Aug-09 17:00N 35°23' W 051°07'0 0.0 27.5
2018-Aug-09 16:45N 35°23' W 051°07'1 0.6 27.5
2018-Aug-09 14:45N 35°22' W 051°06'0 0.0 27.2
2018-Aug-09 14:15N 35°22' W 051°06'1 3.1 27.1
2018-Aug-09 14:00N 35°23' W 051°05'0 0.0 27.1
2018-Aug-09 13:15N 35°23' W 051°05'2 6.3 27.1
2018-Aug-09 13:00N 35°23' W 051°04'1 2.3 27.0
2018-Aug-09 12:30N 35°24' W 051°02'0 0.5 27.0
2018-Aug-09 11:30N 35°24' W 051°02'1 3.1 26.9
2018-Aug-09 11:15N 35°25' W 051°01'2 2.0 26.9
2018-Aug-09 10:15N 35°25' W 050°59'0 0.0 26.9
2018-Aug-09 09:45N 35°25' W 050°59'0 0.0 26.9
2018-Aug-09 09:30N 35°25' W 050°59'1 1.2 26.9
2018-Aug-09 09:00N 35°26' W 050°59'2 7.6 26.9
2018-Aug-09 08:45N 35°27' W 050°57'0 0.0 26.9
2018-Aug-09 08:30N 35°27' W 050°57'0 0.0 26.9
2018-Aug-09 07:15N 35°27' W 050°57'729.2 26.9
2018-Aug-09 07:00N 35°31' W 050°49'0 0.0 26.9
2018-Aug-09 01:45N 35°31' W 050°49'0 0.5 26.9
2018-Aug-09 00:45N 35°31' W 050°49'0 0.0 26.9
2018-Aug-09 00:15N 35°31' W 050°49'2 6.2 27.0
2018-Aug-09 00:00N 35°32' W 050°47'0 0.0 27.0
2018-Aug-08 23:15N 35°32' W 050°47'2 8.2 27.0
2018-Aug-08 23:00N 35°32' W 050°45'0 0.0 27.1
2018-Aug-08 22:45N 35°32' W 050°45'1 0.5 27.1
2018-Aug-08 21:30N 35°33' W 050°45'1 4.6 27.1
2018-Aug-08 21:15N 35°34' W 050°44'2 2.5 27.1
2018-Aug-08 20:30N 35°35' W 050°42'0 0.0 27.1
2018-Aug-08 20:15N 35°35' W 050°42'0 0.0 27.1
2018-Aug-08 19:45N 35°35' W 050°42'4 4.2 27.2
2018-Aug-08 18:45N 35°38' W 050°38'0 0.0 27.2
2018-Aug-08 17:00N 35°38' W 050°38'2 0.6 27.2
2018-Aug-08 14:30N 35°39' W 050°37'0 0.0 27.1
2018-Aug-08 14:15N 35°39' W 050°37'0 0.0 27.1
2018-Aug-08 13:30N 35°39' W 050°37'1 3.1 27.0
2018-Aug-08 13:15N 35°40' W 050°37'1 1.5 27.0
2018-Aug-08 12:45N 35°40' W 050°36'0 0.5 27.0
2018-Aug-08 11:45N 35°40' W 050°35'2 7.6 26.9
2018-Aug-08 11:30N 35°41' W 050°34'1 0.6 26.9
2018-Aug-08 10:15N 35°41' W 050°34'1 5.2 26.9
2018-Aug-08 10:00N 35°42' W 050°34'0 0.0 26.9
2018-Aug-08 09:45N 35°42' W 050°34'0 0.0 26.9
2018-Aug-08 09:15N 35°42' W 050°34'2 9.2 26.9
2018-Aug-08 09:00N 35°43' W 050°31'1 0.8 26.9
2018-Aug-08 07:30N 35°44' W 050°32'727.2 26.9
2018-Aug-08 07:15N 35°48' W 050°26'0 0.1 26.9
2018-Aug-08 01:15N 35°48' W 050°25'2 6.2 27.0
2018-Aug-08 01:00N 35°49' W 050°24'1 2.6 27.0
2018-Aug-08 00:30N 35°50' W 050°23'0 0.0 27.0
2018-Aug-08 00:15N 35°50' W 050°23'0 0.6 27.0
2018-Aug-07 23:30N 35°50' W 050°23'0 0.0 27.0
2018-Aug-07 23:15N 35°50' W 050°23'2 8.2 27.0
2018-Aug-07 23:00N 35°52' W 050°22'0 0.0 27.0
2018-Aug-07 22:45N 35°52' W 050°22'0 0.0 27.0
2018-Aug-07 22:00N 35°52' W 050°22'0 0.0 27.0
2018-Aug-07 21:45N 35°52' W 050°22'2 7.5 27.0
2018-Aug-07 21:30N 35°54' W 050°21'0 0.0 27.0
2018-Aug-07 20:45N 35°54' W 050°21'0 0.0 27.1
2018-Aug-07 20:30N 35°54' W 050°21'313.7 27.1
2018-Aug-07 20:15N 35°56' W 050°17'313.7 27.1
2018-Aug-07 20:00N 35°54' W 050°21'4 3.9 27.1
2018-Aug-07 19:00N 35°57' W 050°18'0 0.0 27.1
2018-Aug-07 18:45N 35°57' W 050°18'6 3.9 27.1
2018-Aug-07 17:15N 36°02' W 050°14'1 0.2 27.0
2018-Aug-07 13:45N 36°02' W 050°13'310.6 26.9
2018-Aug-07 13:30N 36°04' W 050°11'0 0.0 26.9
2018-Aug-07 13:15N 36°04' W 050°11'0 0.0 26.9
2018-Aug-07 13:00N 36°04' W 050°11'0 0.6 26.9
2018-Aug-07 12:15N 36°04' W 050°11'1 4.6 26.9
2018-Aug-07 12:00N 36°04' W 050°10'1 5.2 26.9
2018-Aug-07 11:45N 36°05' W 050°10'0 0.0 26.9
2018-Aug-07 10:45N 36°05' W 050°10'0 0.0 26.9
2018-Aug-07 10:30N 36°05' W 050°10'1 1.5 26.9
2018-Aug-07 10:00N 36°05' W 050°09'0 0.0 26.9
2018-Aug-07 09:45N 36°05' W 050°09'1 2.4 26.9
2018-Aug-07 09:30N 36°06' W 050°09'2 9.3 26.9
2018-Aug-07 09:15N 36°08' W 050°07'0 0.0 26.9
2018-Aug-07 09:00N 36°08' W 050°07'0 0.0 26.9
2018-Aug-07 08:00N 36°08' W 050°07'0 1.9 27.0
2018-Aug-07 07:45N 36°08' W 050°08'830.3 27.0
2018-Aug-07 07:30N 36°13' W 050°01'1 0.2 27.0
2018-Aug-07 01:30N 36°13' W 049°59'2 2.1 27.1
2018-Aug-07 00:45N 36°14' W 049°58'0 0.0 27.1
2018-Aug-07 00:00N 36°14' W 049°58'1 3.9 27.1
2018-Aug-06 23:45N 36°14' W 049°57'0 0.0 27.2
2018-Aug-06 23:30N 36°14' W 049°57'2 6.2 27.2
2018-Aug-06 23:15N 36°16' W 049°56'0 0.0 27.2
2018-Aug-06 23:00N 36°16' W 049°56'0 0.0 27.2
2018-Aug-06 22:30N 36°16' W 049°56'1 3.1 27.3
2018-Aug-06 22:15N 36°16' W 049°55'0 0.0 27.3
2018-Aug-06 22:00N 36°16' W 049°55'0 0.0 27.3
2018-Aug-06 21:45N 36°16' W 049°55'1 4.6 27.3
2018-Aug-06 21:30N 36°17' W 049°54'2 3.0 27.3
2018-Aug-06 20:45N 36°18' W 049°52'2 9.1 27.3
2018-Aug-06 20:30N 36°17' W 049°54'2 1.6 27.3
2018-Aug-06 19:15N 36°17' W 049°52'2 7.5 27.3
2018-Aug-06 19:00N 36°19' W 049°50'5 3.0 27.3
2018-Aug-06 17:30N 36°22' W 049°46'0 0.0 27.3
2018-Aug-06 14:15N 36°22' W 049°46'0 0.0 27.1
2018-Aug-06 14:00N 36°22' W 049°46'2 3.1 27.1
2018-Aug-06 13:30N 36°22' W 049°44'0 0.0 27.1
2018-Aug-06 13:15N 36°22' W 049°44'1 1.0 27.0
2018-Aug-06 12:30N 36°23' W 049°44'0 0.0 26.9
2018-Aug-06 12:15N 36°23' W 049°44'0 1.9 26.9
2018-Aug-06 12:00N 36°23' W 049°44'2 6.2 26.9
2018-Aug-06 11:45N 36°24' W 049°43'0 0.0 26.9
2018-Aug-06 11:00N 36°24' W 049°43'1 1.5 26.9
2018-Aug-06 10:15N 36°25' W 049°41'0 0.0 26.9
2018-Aug-06 10:00N 36°25' W 049°41'0 1.0 26.9
2018-Aug-06 09:30N 36°25' W 049°41'1 3.1 26.9
2018-Aug-06 09:15N 36°25' W 049°40'0 0.0 26.9
2018-Aug-06 08:30N 36°25' W 049°40'0 1.9 26.9
2018-Aug-06 08:15N 36°25' W 049°40'0 0.0 26.9
2018-Aug-06 07:45N 36°25' W 049°40'310.6 26.9
2018-Aug-06 07:30N 36°27' W 049°37'0 0.0 26.9
2018-Aug-06 06:45N 36°27' W 049°37'7 8.7 26.9
2018-Aug-06 06:00N 36°29' W 049°29'0 0.0 26.9
2018-Aug-06 01:45N 36°29' W 049°29'3 3.6 26.9
2018-Aug-06 01:00N 36°30' W 049°26'0 0.0 26.9
2018-Aug-06 00:15N 36°30' W 049°26'0 0.0 26.9
2018-Aug-06 00:00N 36°30' W 049°26'0 0.0 26.9
2018-Aug-05 23:45N 36°30' W 049°26'1 5.2 26.9
2018-Aug-05 23:30N 36°31' W 049°26'0 0.0 26.9
2018-Aug-05 23:15N 36°31' W 049°26'1 3.1 26.9
2018-Aug-05 23:00N 36°31' W 049°25'0 0.0 26.9
2018-Aug-05 22:45N 36°31' W 049°25'1 4.5 26.9
2018-Aug-05 22:30N 36°31' W 049°24'0 0.0 26.9
2018-Aug-05 22:00N 36°31' W 049°24'0 0.0 26.9
2018-Aug-05 21:45N 36°31' W 049°24'1 1.5 26.9
2018-Aug-05 21:15N 36°32' W 049°23'313.6 26.9
2018-Aug-05 21:00N 36°34' W 049°20'2 1.0 26.9
2018-Aug-05 19:30N 36°34' W 049°18'0 0.0 26.9
2018-Aug-05 19:15N 36°34' W 049°18'0 0.0 26.9
2018-Aug-05 17:45N 36°34' W 049°18'0 0.0 27.0
2018-Aug-05 17:30N 36°34' W 049°18'5 1.7 27.0
2018-Aug-05 14:30N 36°35' W 049°12'0 0.0 26.9
2018-Aug-05 14:00N 36°35' W 049°12'2 6.3 26.8
2018-Aug-05 13:45N 36°36' W 049°10'0 0.0 26.8
2018-Aug-05 12:45N 36°36' W 049°10'0 0.0 26.8
2018-Aug-05 12:15N 36°36' W 049°10'2 8.1 26.8
2018-Aug-05 12:00N 36°37' W 049°08'0 0.0 26.8
2018-Aug-05 11:15N 36°37' W 049°08'0 0.0 26.8
2018-Aug-05 11:00N 36°37' W 049°08'0 1.0 26.8
2018-Aug-05 10:30N 36°37' W 049°07'0 0.0 26.8
2018-Aug-05 10:15N 36°37' W 049°07'0 1.0 26.8
2018-Aug-05 09:45N 36°37' W 049°07'0 0.0 26.8
2018-Aug-05 09:30N 36°37' W 049°07'1 1.9 26.8
2018-Aug-05 09:00N 36°37' W 049°05'0 0.0 26.8
2018-Aug-05 08:00N 36°37' W 049°05'2 6.3 26.8
2018-Aug-05 07:45N 36°37' W 049°04'0 0.0 26.8
2018-Aug-05 07:30N 36°37' W 049°04'0 0.0 26.8
2018-Aug-05 07:15N 36°37' W 049°04'   26.8
Track history (hours):
 
Tides and Currents Weather Stations Pressure Air Temp Water Temp Dewpoint Dewpoint Depression Visibility Wind Speed Wind Dir Waves Ship Positions

Drifting buoy 44893

Last reported at 2018-Aug-15 07:00 UTC. Time now 2018-Aug-17 11:41 UTC.
Position N 34°31' W 053°47'.

Water temperature 27.3 ° C

Date/timePositionNaut miles runAvg speedWind from/ knotsBaromVisibWave heightAir tempDewpointWater temp
2018-Aug-15 07:00N 34°31' W 053°47'0 0.0 27.3
2018-Aug-15 02:00N 34°31' W 053°47'0 0.0 27.3
2018-Aug-15 01:30N 34°31' W 053°47'0 0.0 27.3
2018-Aug-15 01:15N 34°31' W 053°47'0 0.0 27.3
2018-Aug-15 00:30N 34°31' W 053°47'0 0.0 27.3
2018-Aug-15 00:15N 34°31' W 053°47'1 1.6 27.4
2018-Aug-14 23:45N 34°30' W 053°48'1 3.1 27.4
2018-Aug-14 23:30N 34°31' W 053°49'1 2.4 27.4
2018-Aug-14 23:15N 34°31' W 053°49'0 1.0 27.4
2018-Aug-14 22:45N 34°31' W 053°49'0 0.0 27.4
2018-Aug-14 22:15N 34°31' W 053°49'2 4.1 27.4
2018-Aug-14 21:45N 34°33' W 053°50'0 0.0 27.4
2018-Aug-14 21:30N 34°33' W 053°50'0 0.0 27.4
2018-Aug-14 21:00N 34°33' W 053°50'0 0.0 27.4
2018-Aug-14 20:00N 34°33' W 053°50'2 2.1 27.4
2018-Aug-14 19:15N 34°34' W 053°52'0 0.0 27.4
2018-Aug-14 17:45N 34°34' W 053°52'414.9 27.4
2018-Aug-14 17:30N 34°38' W 053°53'1 0.3 27.4
2018-Aug-14 14:45N 34°38' W 053°52'0 0.0 27.3
2018-Aug-14 14:15N 34°38' W 053°52'1 4.6 27.3
2018-Aug-14 14:00N 34°39' W 053°53'0 0.0 27.3
2018-Aug-14 13:45N 34°39' W 053°53'0 0.0 27.3
2018-Aug-14 13:00N 34°39' W 053°53'1 2.4 27.3
2018-Aug-14 12:30N 34°40' W 053°53'0 0.0 27.2
2018-Aug-14 12:15N 34°40' W 053°53'2 6.4 27.2
2018-Aug-14 12:00N 34°41' W 053°55'0 0.0 27.2
2018-Aug-14 11:15N 34°41' W 053°55'0 0.0 27.2
2018-Aug-14 11:00N 34°41' W 053°55'0 0.0 27.2
2018-Aug-14 10:30N 34°41' W 053°55'1 3.1 27.2
2018-Aug-14 10:15N 34°41' W 053°55'1 0.8 27.2
2018-Aug-14 09:30N 34°41' W 053°55'1 5.2 27.2
2018-Aug-14 09:15N 34°42' W 053°55'0 0.0 27.2
2018-Aug-14 08:00N 34°42' W 053°55'415.5 27.2
2018-Aug-14 07:45N 34°45' W 053°52'313.4 27.2
2018-Aug-14 07:30N 34°42' W 053°54'3 2.7 27.2
2018-Aug-14 06:15N 34°45' W 053°52'0 0.0 27.2
2018-Aug-14 01:45N 34°45' W 053°52'0 2.0 27.3
2018-Aug-14 01:30N 34°45' W 053°52'1 1.5 27.3
2018-Aug-14 00:45N 34°46' W 053°50'0 0.0 27.3
2018-Aug-14 00:30N 34°46' W 053°50'1 1.2 27.3
2018-Aug-14 00:00N 34°46' W 053°50'0 0.0 27.3
2018-Aug-13 23:45N 34°46' W 053°50'1 3.9 27.3
2018-Aug-13 23:30N 34°46' W 053°49'0 1.0 27.3
2018-Aug-13 23:00N 34°46' W 053°50'0 0.0 27.3
2018-Aug-13 22:45N 34°46' W 053°50'1 3.1 27.3
2018-Aug-13 22:30N 34°47' W 053°49'0 0.0 27.3
2018-Aug-13 22:15N 34°47' W 053°49'0 2.0 27.3
2018-Aug-13 22:00N 34°47' W 053°49'0 0.0 27.3
2018-Aug-13 21:45N 34°47' W 053°49'2 2.5 27.4
2018-Aug-13 21:00N 34°48' W 053°47'0 1.0 27.4
2018-Aug-13 20:30N 34°48' W 053°46'0 2.0 27.4
2018-Aug-13 20:15N 34°48' W 053°47'2 2.6 27.4
2018-Aug-13 19:30N 34°48' W 053°44'0 0.0 27.4
2018-Aug-13 19:15N 34°48' W 053°44'0 0.0 27.3
2018-Aug-13 17:45N 34°48' W 053°44'4 1.3 27.3
2018-Aug-13 14:30N 34°49' W 053°40'2 9.2 27.1
2018-Aug-13 14:15N 34°50' W 053°37'0 0.0 27.1
2018-Aug-13 13:30N 34°50' W 053°37'0 0.0 27.0
2018-Aug-13 13:15N 34°50' W 053°37'1 2.0 27.0
2018-Aug-13 12:45N 34°50' W 053°36'1 2.6 26.9
2018-Aug-13 12:15N 34°52' W 053°35'1 2.0 26.9
2018-Aug-13 11:45N 34°52' W 053°34'0 0.0 26.9
2018-Aug-13 10:45N 34°52' W 053°34'0 2.0 26.9
2018-Aug-13 10:30N 34°52' W 053°34'0 0.0 26.9
2018-Aug-13 10:00N 34°52' W 053°34'312.1 26.9
2018-Aug-13 09:45N 34°52' W 053°30'0 0.0 26.9
2018-Aug-13 09:30N 34°52' W 053°30'2 1.3 26.9
2018-Aug-13 08:15N 34°52' W 053°28'0 0.0 26.9
2018-Aug-13 08:00N 34°52' W 053°28'0 0.0 26.9
2018-Aug-13 06:30N 34°52' W 053°28'624.1 26.9
2018-Aug-13 06:15N 34°53' W 053°21'0 0.0 26.9
2018-Aug-13 02:00N 34°53' W 053°21'1 1.2 27.0
2018-Aug-13 01:00N 34°53' W 053°20'0 0.0 27.0
2018-Aug-13 00:30N 34°53' W 053°20'1 3.9 27.0
2018-Aug-13 00:15N 34°53' W 053°19'0 0.0 27.0
2018-Aug-13 00:00N 34°53' W 053°19'0 2.0 27.0
2018-Aug-12 23:45N 34°53' W 053°18'0 0.0 27.0
2018-Aug-12 23:30N 34°53' W 053°18'1 3.1 27.0
2018-Aug-12 23:15N 34°54' W 053°17'0 0.0 27.0
2018-Aug-12 23:00N 34°54' W 053°17'0 0.0 27.1
2018-Aug-12 22:45N 34°54' W 053°17'0 2.0 27.1
2018-Aug-12 22:30N 34°54' W 053°17'1 3.1 27.1
2018-Aug-12 22:15N 34°53' W 053°16'1 4.6 27.1
2018-Aug-12 22:00N 34°54' W 053°15'1 2.3 27.1
2018-Aug-12 21:30N 34°55' W 053°14'0 0.0 27.1
2018-Aug-12 21:15N 34°55' W 053°14'0 0.0 27.1
2018-Aug-12 21:00N 34°55' W 053°14'0 0.0 27.1
2018-Aug-12 20:45N 34°55' W 053°14'1 1.5 27.1
2018-Aug-12 19:45N 34°55' W 053°12'310.1 27.1
2018-Aug-12 19:30N 34°55' W 053°09'0 0.0 27.1
2018-Aug-12 18:00N 34°55' W 053°09'0 0.0 27.1
2018-Aug-12 17:45N 34°55' W 053°09'4 1.4 27.1
2018-Aug-12 14:45N 34°57' W 053°04'1 0.8 27.1
2018-Aug-12 13:45N 34°58' W 053°04'0 0.0 27.1
2018-Aug-12 13:15N 34°58' W 053°04'0 2.0 27.1
2018-Aug-12 13:00N 34°58' W 053°03'0 1.0 27.1
2018-Aug-12 12:30N 34°58' W 053°02'0 0.0 27.1
2018-Aug-12 12:15N 34°58' W 053°02'0 0.0 27.0
2018-Aug-12 11:45N 34°58' W 053°02'2 1.6 27.0
2018-Aug-12 10:45N 34°57' W 053°01'0 0.0 27.0
2018-Aug-12 10:30N 34°57' W 053°01'2 9.8 27.0
2018-Aug-12 10:15N 34°57' W 052°58'0 0.0 27.0
2018-Aug-12 10:00N 34°57' W 052°58'0 0.4 27.0
2018-Aug-12 08:45N 34°57' W 052°57'3 5.9 27.0
2018-Aug-12 08:15N 34°57' W 052°53'0 0.0 27.0
2018-Aug-12 07:00N 34°57' W 052°53'0 0.0 27.1
2018-Aug-12 06:45N 34°57' W 052°53'833.4 27.1
2018-Aug-12 06:30N 34°57' W 052°43'0 0.0 27.1
2018-Aug-12 01:30N 34°57' W 052°43'2 6.4 27.2
2018-Aug-12 01:15N 34°58' W 052°41'1 2.0 27.3
2018-Aug-12 00:45N 34°58' W 052°40'0 0.0 27.2
2018-Aug-12 00:30N 34°58' W 052°40'2 3.8 27.3
2018-Aug-12 00:00N 34°59' W 052°38'0 0.0 27.3
2018-Aug-11 23:45N 34°59' W 052°38'0 0.0 27.3
2018-Aug-11 23:30N 34°59' W 052°38'0 0.0 27.3
2018-Aug-11 23:15N 34°59' W 052°38'1 3.9 27.3
2018-Aug-11 23:00N 34°59' W 052°37'0 0.0 27.3
2018-Aug-11 22:30N 34°59' W 052°37'1 4.6 27.3
2018-Aug-11 22:15N 34°59' W 052°36'0 0.0 27.3
2018-Aug-11 21:45N 34°59' W 052°36'0 0.0 27.4
2018-Aug-11 21:30N 34°59' W 052°36'0 0.0 27.4
2018-Aug-11 21:15N 34°59' W 052°36'2 2.1 27.4
2018-Aug-11 20:15N 35°00' W 052°34'3 5.5 27.4
2018-Aug-11 19:45N 35°01' W 052°31'0 0.0 27.4
2018-Aug-11 18:15N 35°01' W 052°31'0 0.0 27.4
2018-Aug-11 18:00N 35°01' W 052°31'4 1.2 27.4
2018-Aug-11 14:15N 35°02' W 052°25'1 3.9 27.3
2018-Aug-11 14:00N 35°02' W 052°24'0 0.0 27.3
2018-Aug-11 13:30N 35°02' W 052°24'1 3.9 27.3
2018-Aug-11 13:15N 35°02' W 052°23'0 1.0 27.3
2018-Aug-11 12:45N 35°02' W 052°22'1 2.4 27.3
2018-Aug-11 12:30N 35°02' W 052°22'1 3.9 27.2
2018-Aug-11 12:15N 35°02' W 052°21'1 2.0 27.2
2018-Aug-11 11:45N 35°02' W 052°20'0 0.7 27.2
2018-Aug-11 11:00N 35°02' W 052°19'0 0.0 27.2
2018-Aug-11 10:45N 35°02' W 052°19'2 7.9 1.1 27.2
2018-Aug-11 10:30N 35°02' W 052°17'1 1.2 27.2
2018-Aug-11 09:15N 35°02' W 052°15'0 0.0 27.2
2018-Aug-11 09:00N 35°02' W 052°15'0 0.0 27.2
2018-Aug-11 08:45N 35°02' W 052°15'2 9.8 27.2
2018-Aug-11 08:30N 35°02' W 052°12'0 0.0 27.2
2018-Aug-11 08:15N 35°02' W 052°12'0 0.0 27.2
2018-Aug-11 07:45N 35°02' W 052°12'0 0.0 27.2
2018-Aug-11 07:30N 35°02' W 052°12'911.8 27.2
2018-Aug-11 06:45N 35°05' W 052°02'2 0.3 27.2
2018-Aug-11 01:45N 35°06' W 052°00'0 0.0 27.3
2018-Aug-11 01:15N 35°06' W 052°00'1 5.2 27.3
2018-Aug-11 01:00N 35°07' W 051°59'2 2.1 27.3
2018-Aug-11 00:15N 35°08' W 051°58'0 0.0 27.3
2018-Aug-11 00:00N 35°08' W 051°58'0 0.0 27.3
2018-Aug-10 23:45N 35°08' W 051°58'1 3.1 27.3
2018-Aug-10 23:30N 35°08' W 051°57'0 0.0 27.3
2018-Aug-10 23:15N 35°08' W 051°57'0 0.0 27.3
2018-Aug-10 22:45N 35°08' W 051°57'0 2.0 27.4
2018-Aug-10 22:30N 35°08' W 051°56'0 0.0 27.4
2018-Aug-10 22:15N 35°08' W 051°56'0 0.0 27.4
2018-Aug-10 22:00N 35°08' W 051°56'0 0.0 27.4
2018-Aug-10 21:45N 35°08' W 051°56'1 2.0 27.4
2018-Aug-10 21:00N 35°08' W 051°55'0 0.0 27.4
2018-Aug-10 20:45N 35°08' W 051°55'1 4.6 27.4
2018-Aug-10 20:30N 35°09' W 051°53'0 0.0 27.4
2018-Aug-10 20:15N 35°09' W 051°53'2 8.2 27.4
2018-Aug-10 20:00N 35°08' W 051°51'0 0.0 27.4
2018-Aug-10 18:30N 35°08' W 051°51'623.6 27.4
2018-Aug-10 18:15N 35°11' W 051°44'2 0.4 27.4
2018-Aug-10 14:30N 35°10' W 051°43'2 2.1 27.4
2018-Aug-10 13:45N 35°11' W 051°41'0 0.0 27.3
2018-Aug-10 13:00N 35°11' W 051°41'0 2.0 27.2
2018-Aug-10 12:45N 35°11' W 051°40'0 0.0 27.2
2018-Aug-10 12:15N 35°11' W 051°40'2 6.4 27.1
2018-Aug-10 12:00N 35°11' W 051°38'0 0.0 27.1
2018-Aug-10 11:15N 35°11' W 051°38'1 3.9 27.1
2018-Aug-10 11:00N 35°11' W 051°37'2 1.8 27.1
2018-Aug-10 09:45N 35°13' W 051°35'0 0.0 27.1
2018-Aug-10 09:30N 35°13' W 051°35'1 5.9 27.1
2018-Aug-10 09:15N 35°13' W 051°33'0 1.0 27.1
2018-Aug-10 08:45N 35°13' W 051°32'2 9.2 27.1
2018-Aug-10 08:30N 35°14' W 051°30'2 7.6 27.1
2018-Aug-10 08:15N 35°13' W 051°32'0 0.0 27.1
2018-Aug-10 08:00N 35°13' W 051°32'1110.8 27.1
2018-Aug-10 07:00N 35°18' W 051°20'0 0.0 27.1
2018-Aug-10 06:45N 35°18' W 051°20'1 0.1 27.1
2018-Aug-10 01:30N 35°17' W 051°20'0 0.0 27.3
2018-Aug-10 01:15N 35°17' W 051°20'1 1.5 27.3
2018-Aug-10 00:30N 35°18' W 051°19'0 0.0 27.3
2018-Aug-10 00:15N 35°18' W 051°19'2 3.2 27.3
2018-Aug-09 23:45N 35°19' W 051°17'0 0.0 27.3
2018-Aug-09 22:45N 35°19' W 051°17'1 3.9 190 / 3 gusting 61007.0 14.510.927.3
2018-Aug-09 22:30N 35°19' W 051°16'0 0.4 27.3
2018-Aug-09 21:15N 35°19' W 051°16'1 5.9 27.4
2018-Aug-09 21:00N 35°19' W 051°14'1 4.6 27.5
2018-Aug-09 20:45N 35°19' W 051°15'3 5.9 27.5
2018-Aug-09 20:15N 35°19' W 051°11'0 0.0 27.5
2018-Aug-09 19:15N 35°19' W 051°11'0 0.0 27.5
2018-Aug-09 18:45N 35°19' W 051°11'519.9 27.5
2018-Aug-09 18:30N 35°23' W 051°07'0 0.0 27.5
2018-Aug-09 17:00N 35°23' W 051°07'0 0.0 27.5
2018-Aug-09 16:45N 35°23' W 051°07'1 0.6 27.5
2018-Aug-09 14:45N 35°22' W 051°06'0 0.0 27.2
2018-Aug-09 14:15N 35°22' W 051°06'1 3.1 27.1
2018-Aug-09 14:00N 35°23' W 051°05'0 0.0 27.1
2018-Aug-09 13:15N 35°23' W 051°05'2 6.3 27.1
2018-Aug-09 13:00N 35°23' W 051°04'1 2.3 27.0
2018-Aug-09 12:30N 35°24' W 051°02'0 0.5 27.0
2018-Aug-09 11:30N 35°24' W 051°02'1 3.1 26.9
2018-Aug-09 11:15N 35°25' W 051°01'2 2.0 26.9
2018-Aug-09 10:15N 35°25' W 050°59'0 0.0 26.9
2018-Aug-09 09:45N 35°25' W 050°59'0 0.0 26.9
2018-Aug-09 09:30N 35°25' W 050°59'1 1.2 26.9
2018-Aug-09 09:00N 35°26' W 050°59'2 7.6 26.9
2018-Aug-09 08:45N 35°27' W 050°57'0 0.0 26.9
2018-Aug-09 08:30N 35°27' W 050°57'0 0.0 26.9
2018-Aug-09 07:15N 35°27' W 050°57'729.2 26.9
2018-Aug-09 07:00N 35°31' W 050°49'0 0.0 26.9
2018-Aug-09 01:45N 35°31' W 050°49'0 0.5 26.9
2018-Aug-09 00:45N 35°31' W 050°49'0 0.0 26.9
2018-Aug-09 00:15N 35°31' W 050°49'2 6.2 27.0
2018-Aug-09 00:00N 35°32' W 050°47'0 0.0 27.0
2018-Aug-08 23:15N 35°32' W 050°47'2 8.2 27.0
2018-Aug-08 23:00N 35°32' W 050°45'0 0.0 27.1
2018-Aug-08 22:45N 35°32' W 050°45'1 0.5 27.1
2018-Aug-08 21:30N 35°33' W 050°45'1 4.6 27.1
2018-Aug-08 21:15N 35°34' W 050°44'2 2.5 27.1
2018-Aug-08 20:30N 35°35' W 050°42'0 0.0 27.1
2018-Aug-08 20:15N 35°35' W 050°42'0 0.0 27.1
2018-Aug-08 19:45N 35°35' W 050°42'4 4.2 27.2
2018-Aug-08 18:45N 35°38' W 050°38'0 0.0 27.2
2018-Aug-08 17:00N 35°38' W 050°38'2 0.6 27.2
2018-Aug-08 14:30N 35°39' W 050°37'0 0.0 27.1
2018-Aug-08 14:15N 35°39' W 050°37'0 0.0 27.1
2018-Aug-08 13:30N 35°39' W 050°37'1 3.1 27.0
2018-Aug-08 13:15N 35°40' W 050°37'1 1.5 27.0
2018-Aug-08 12:45N 35°40' W 050°36'0 0.5 27.0
2018-Aug-08 11:45N 35°40' W 050°35'2 7.6 26.9
2018-Aug-08 11:30N 35°41' W 050°34'1 0.6 26.9
2018-Aug-08 10:15N 35°41' W 050°34'1 5.2 26.9
2018-Aug-08 10:00N 35°42' W 050°34'0 0.0 26.9
2018-Aug-08 09:45N 35°42' W 050°34'0 0.0 26.9
2018-Aug-08 09:15N 35°42' W 050°34'2 9.2 26.9
2018-Aug-08 09:00N 35°43' W 050°31'1 0.8 26.9
2018-Aug-08 07:30N 35°44' W 050°32'727.2 26.9
2018-Aug-08 07:15N 35°48' W 050°26'0 0.1 26.9
2018-Aug-08 01:15N 35°48' W 050°25'2 6.2 27.0
2018-Aug-08 01:00N 35°49' W 050°24'1 2.6 27.0
2018-Aug-08 00:30N 35°50' W 050°23'0 0.0 27.0
2018-Aug-08 00:15N 35°50' W 050°23'0 0.6 27.0
2018-Aug-07 23:30N 35°50' W 050°23'0 0.0 27.0
2018-Aug-07 23:15N 35°50' W 050°23'2 8.2 27.0
2018-Aug-07 23:00N 35°52' W 050°22'0 0.0 27.0
2018-Aug-07 22:45N 35°52' W 050°22'0 0.0 27.0
2018-Aug-07 22:00N 35°52' W 050°22'0 0.0 27.0
2018-Aug-07 21:45N 35°52' W 050°22'2 7.5 27.0
2018-Aug-07 21:30N 35°54' W 050°21'0 0.0 27.0
2018-Aug-07 20:45N 35°54' W 050°21'0 0.0 27.1
2018-Aug-07 20:30N 35°54' W 050°21'313.7 27.1
2018-Aug-07 20:15N 35°56' W 050°17'313.7 27.1
2018-Aug-07 20:00N 35°54' W 050°21'4 3.9 27.1
2018-Aug-07 19:00N 35°57' W 050°18'0 0.0 27.1
2018-Aug-07 18:45N 35°57' W 050°18'6 3.9 27.1
2018-Aug-07 17:15N 36°02' W 050°14'1 0.2 27.0
2018-Aug-07 13:45N 36°02' W 050°13'310.6 26.9
2018-Aug-07 13:30N 36°04' W 050°11'0 0.0 26.9
2018-Aug-07 13:15N 36°04' W 050°11'0 0.0 26.9
2018-Aug-07 13:00N 36°04' W 050°11'0 0.6 26.9
2018-Aug-07 12:15N 36°04' W 050°11'1 4.6 26.9
2018-Aug-07 12:00N 36°04' W 050°10'1 5.2 26.9
2018-Aug-07 11:45N 36°05' W 050°10'0 0.0 26.9
2018-Aug-07 10:45N 36°05' W 050°10'0 0.0 26.9
2018-Aug-07 10:30N 36°05' W 050°10'1 1.5 26.9
2018-Aug-07 10:00N 36°05' W 050°09'0 0.0 26.9
2018-Aug-07 09:45N 36°05' W 050°09'1 2.4 26.9
2018-Aug-07 09:30N 36°06' W 050°09'2 9.3 26.9
2018-Aug-07 09:15N 36°08' W 050°07'0 0.0 26.9
2018-Aug-07 09:00N 36°08' W 050°07'0 0.0 26.9
2018-Aug-07 08:00N 36°08' W 050°07'0 1.9 27.0
2018-Aug-07 07:45N 36°08' W 050°08'830.3 27.0
2018-Aug-07 07:30N 36°13' W 050°01'1 0.2 27.0
2018-Aug-07 01:30N 36°13' W 049°59'2 2.1 27.1
2018-Aug-07 00:45N 36°14' W 049°58'0 0.0 27.1
2018-Aug-07 00:00N 36°14' W 049°58'1 3.9 27.1
2018-Aug-06 23:45N 36°14' W 049°57'0 0.0 27.2
2018-Aug-06 23:30N 36°14' W 049°57'2 6.2 27.2
2018-Aug-06 23:15N 36°16' W 049°56'0 0.0 27.2
2018-Aug-06 23:00N 36°16' W 049°56'0 0.0 27.2
2018-Aug-06 22:30N 36°16' W 049°56'1 3.1 27.3
2018-Aug-06 22:15N 36°16' W 049°55'0 0.0 27.3
2018-Aug-06 22:00N 36°16' W 049°55'0 0.0 27.3
2018-Aug-06 21:45N 36°16' W 049°55'1 4.6 27.3
2018-Aug-06 21:30N 36°17' W 049°54'2 3.0 27.3
2018-Aug-06 20:45N 36°18' W 049°52'2 9.1 27.3
2018-Aug-06 20:30N 36°17' W 049°54'2 1.6 27.3
2018-Aug-06 19:15N 36°17' W 049°52'2 7.5 27.3
2018-Aug-06 19:00N 36°19' W 049°50'5 3.0 27.3
2018-Aug-06 17:30N 36°22' W 049°46'0 0.0 27.3
2018-Aug-06 14:15N 36°22' W 049°46'0 0.0 27.1
2018-Aug-06 14:00N 36°22' W 049°46'2 3.1 27.1
2018-Aug-06 13:30N 36°22' W 049°44'0 0.0 27.1
2018-Aug-06 13:15N 36°22' W 049°44'1 1.0 27.0
2018-Aug-06 12:30N 36°23' W 049°44'0 0.0 26.9
2018-Aug-06 12:15N 36°23' W 049°44'0 1.9 26.9
2018-Aug-06 12:00N 36°23' W 049°44'2 6.2 26.9
2018-Aug-06 11:45N 36°24' W 049°43'0 0.0 26.9
2018-Aug-06 11:00N 36°24' W 049°43'1 1.5 26.9
2018-Aug-06 10:15N 36°25' W 049°41'0 0.0 26.9
2018-Aug-06 10:00N 36°25' W 049°41'0 1.0 26.9
2018-Aug-06 09:30N 36°25' W 049°41'1 3.1 26.9
2018-Aug-06 09:15N 36°25' W 049°40'0 0.0 26.9
2018-Aug-06 08:30N 36°25' W 049°40'0 1.9 26.9
2018-Aug-06 08:15N 36°25' W 049°40'0 0.0 26.9
2018-Aug-06 07:45N 36°25' W 049°40'310.6 26.9
2018-Aug-06 07:30N 36°27' W 049°37'0 0.0 26.9
2018-Aug-06 06:45N 36°27' W 049°37'7 8.7 26.9
2018-Aug-06 06:00N 36°29' W 049°29'0 0.0 26.9
2018-Aug-06 01:45N 36°29' W 049°29'3 3.6 26.9
2018-Aug-06 01:00N 36°30' W 049°26'0 0.0 26.9
2018-Aug-06 00:15N 36°30' W 049°26'0 0.0 26.9
2018-Aug-06 00:00N 36°30' W 049°26'0 0.0 26.9
2018-Aug-05 23:45N 36°30' W 049°26'1 5.2 26.9
2018-Aug-05 23:30N 36°31' W 049°26'0 0.0 26.9
2018-Aug-05 23:15N 36°31' W 049°26'1 3.1 26.9
2018-Aug-05 23:00N 36°31' W 049°25'0 0.0 26.9
2018-Aug-05 22:45N 36°31' W 049°25'1 4.5 26.9
2018-Aug-05 22:30N 36°31' W 049°24'0 0.0 26.9
2018-Aug-05 22:00N 36°31' W 049°24'0 0.0 26.9
2018-Aug-05 21:45N 36°31' W 049°24'1 1.5 26.9
2018-Aug-05 21:15N 36°32' W 049°23'313.6 26.9
2018-Aug-05 21:00N 36°34' W 049°20'2 1.0 26.9
2018-Aug-05 19:30N 36°34' W 049°18'0 0.0 26.9
2018-Aug-05 19:15N 36°34' W 049°18'0 0.0 26.9
2018-Aug-05 17:45N 36°34' W 049°18'0 0.0 27.0
2018-Aug-05 17:30N 36°34' W 049°18'5 1.7 27.0
2018-Aug-05 14:30N 36°35' W 049°12'0 0.0 26.9
2018-Aug-05 14:00N 36°35' W 049°12'2 6.3 26.8
2018-Aug-05 13:45N 36°36' W 049°10'0 0.0 26.8
2018-Aug-05 12:45N 36°36' W 049°10'0 0.0 26.8
2018-Aug-05 12:15N 36°36' W 049°10'2 8.1 26.8
2018-Aug-05 12:00N 36°37' W 049°08'0 0.0 26.8
2018-Aug-05 11:15N 36°37' W 049°08'0 0.0 26.8
2018-Aug-05 11:00N 36°37' W 049°08'0 1.0 26.8
2018-Aug-05 10:30N 36°37' W 049°07'0 0.0 26.8
2018-Aug-05 10:15N 36°37' W 049°07'0 1.0 26.8
2018-Aug-05 09:45N 36°37' W 049°07'0 0.0 26.8
2018-Aug-05 09:30N 36°37' W 049°07'1 1.9 26.8
2018-Aug-05 09:00N 36°37' W 049°05'0 0.0 26.8
2018-Aug-05 08:00N 36°37' W 049°05'2 6.3 26.8
2018-Aug-05 07:45N 36°37' W 049°04'0 0.0 26.8
2018-Aug-05 07:30N 36°37' W 049°04'0 0.0 26.8
2018-Aug-05 07:15N 36°37' W 049°04'   26.8

Dump ship's entire track history